Time;durP1;ratioP1;P1;durP2;ratioP2;P2;SDS_P1;SDS_P2;PMS_P1;PMS_P2;Temp;Humidity;BMP_temperature;BMP_pressure;BME280_temperature;BME280_humidity;BME280_pressure;Samples;Min_cycle;Max_cycle;Signal;HPM_P1;HPM_P2
2021/03/09 00:02:24;;;;;;;3.43;1.20;;;11.00;99.90;;;;;;5072000;28;20789;-82
2021/03/09 00:04:54;;;;;;;4.27;1.10;;;11.00;99.90;;;;;;5070685;28;20282;-82
2021/03/09 00:07:23;;;;;;;3.50;1.20;;;11.00;99.90;;;;;;5085371;28;20242;-83
2021/03/09 00:09:53;;;;;;;2.23;1.00;;;11.10;99.90;;;;;;5079912;28;20211;-82
2021/03/09 00:12:24;;;;;;;3.60;1.03;;;11.10;99.90;;;;;;5071373;28;20211;-82
2021/03/09 00:14:53;;;;;;;3.33;1.17;;;11.10;99.90;;;;;;5085381;28;20199;-82
2021/03/09 00:17:33;;;;;;;5.07;1.10;;;11.10;99.90;;;;;;5088546;28;20548;-82
2021/03/09 00:20:04;;;;;;;2.97;1.60;;;11.00;99.90;;;;;;5089201;28;20225;-83
2021/03/09 00:22:33;;;;;;;3.73;0.90;;;10.90;99.90;;;;;;5088829;28;20203;-82
2021/03/09 00:25:04;;;;;;;3.63;1.30;;;10.90;99.90;;;;;;5087454;28;20249;-82
2021/03/09 00:27:34;;;;;;;3.40;0.97;;;10.80;99.90;;;;;;5078024;28;20265;-82
2021/03/09 00:30:04;;;;;;;4.03;1.07;;;10.70;99.90;;;;;;5068558;28;20215;-82
2021/03/09 00:32:35;;;;;;;2.87;1.10;;;10.70;99.90;;;;;;5069597;28;20226;-83
2021/03/09 00:35:06;;;;;;;4.77;1.00;;;10.70;99.90;;;;;;5067243;28;20208;-82
2021/03/09 00:37:36;;;;;;;2.60;1.20;;;10.70;99.90;;;;;;5067575;28;20204;-82
2021/03/09 00:40:07;;;;;;;1.93;1.20;;;10.70;99.90;;;;;;5068715;28;20203;-83
2021/03/09 00:42:38;;;;;;;2.10;0.97;;;10.70;99.90;;;;;;5068537;28;20273;-83
2021/03/09 00:45:08;;;;;;;2.83;1.03;;;10.60;99.90;;;;;;5079876;28;20246;-83
2021/03/09 00:47:54;;;;;;;2.70;1.07;;;10.60;99.90;;;;;;5088781;28;20318;-84
2021/03/09 00:50:24;;;;;;;5.27;1.53;;;10.50;99.90;;;;;;5088628;28;20596;-82
2021/03/09 00:52:53;;;;;;;3.30;1.20;;;10.40;99.90;;;;;;5087645;28;20268;-83
2021/03/09 00:55:23;;;;;;;3.33;1.00;;;10.30;99.90;;;;;;5079541;28;20265;-81
2021/03/09 00:58:00;;;;;;;3.13;1.13;;;10.20;99.90;;;;;;5074619;28;20240;-83
2021/03/09 01:00:32;;;;;;;3.20;1.07;;;10.10;99.90;;;;;;5087201;28;20674;-83
2021/03/09 01:03:01;;;;;;;2.97;1.13;;;10.10;99.90;;;;;;5088153;28;20233;-81
2021/03/09 01:05:32;;;;;;;4.50;1.23;;;9.90;99.90;;;;;;5090578;28;20246;-82
2021/03/09 01:08:03;;;;;;;3.60;0.87;;;9.90;99.90;;;;;;5085937;28;20683;-82
2021/03/09 01:10:34;;;;;;;3.17;1.00;;;9.80;99.90;;;;;;5091252;28;20225;-81
2021/03/09 01:13:05;;;;;;;2.47;1.20;;;9.70;99.90;;;;;;5072444;28;20204;-83
2021/03/09 01:15:34;;;;;;;4.27;1.37;;;9.60;99.90;;;;;;5076417;28;20199;-81
2021/03/09 01:18:19;;;;;;;4.60;1.80;;;9.70;99.90;;;;;;5092265;28;20681;-81
2021/03/09 01:20:50;;;;;;;3.47;1.23;;;9.60;99.90;;;;;;5088756;28;20737;-81
2021/03/09 01:23:19;;;;;;;4.10;1.57;;;9.50;99.90;;;;;;5079736;28;20200;-81
2021/03/09 01:25:49;;;;;;;7.27;1.40;;;9.50;99.90;;;;;;5071358;28;20258;-81
2021/03/09 01:28:20;;;;;;;4.37;1.33;;;9.40;99.90;;;;;;5076301;28;20199;-82
2021/03/09 01:30:50;;;;;;;5.63;1.50;;;9.40;99.90;;;;;;5070964;28;20675;-82
2021/03/09 01:33:19;;;;;;;4.00;1.20;;;9.30;99.90;;;;;;5070747;28;20290;-80
2021/03/09 01:35:49;;;;;;;4.10;1.17;;;9.30;99.90;;;;;;5072295;28;20269;-81
2021/03/09 01:38:20;;;;;;;4.77;1.70;;;9.20;99.90;;;;;;5092344;28;20846;-83
2021/03/09 01:40:50;;;;;;;6.37;1.93;;;9.10;99.90;;;;;;5092963;28;20227;-85
2021/03/09 01:43:21;;;;;;;7.23;1.50;;;9.00;99.90;;;;;;5087790;28;20666;-82
2021/03/09 01:45:51;;;;;;;3.53;1.57;;;9.00;99.90;;;;;;5094029;28;20207;-82
2021/03/09 01:51:57;;;;;;;3.93;1.23;;;8.90;99.90;;;;;;5074079;28;20231;-82
2021/03/09 01:54:27;;;;;;;3.87;1.20;;;8.80;99.90;;;;;;5070323;28;20245;-83
2021/03/09 01:56:58;;;;;;;5.60;1.53;;;8.80;99.90;;;;;;5092166;28;20675;-83
2021/03/09 01:59:31;;;;;;;6.50;1.83;;;8.70;99.90;;;;;;5080038;28;20234;-83
2021/03/09 02:02:02;;;;;;;3.43;1.30;;;8.60;99.90;;;;;;5073633;28;20278;-82
2021/03/09 02:04:33;;;;;;;3.03;1.40;;;8.50;99.90;;;;;;5068063;28;20226;-83
2021/03/09 02:07:10;;;;;;;4.60;1.40;;;8.40;99.90;;;;;;5091065;28;20206;-82
2021/03/09 02:09:40;;;;;;;2.83;1.20;;;8.40;99.90;;;;;;5090988;28;20541;-83
2021/03/09 02:12:20;;;;;;;3.27;1.40;;;8.30;99.90;;;;;;5081209;28;20320;-82
2021/03/09 02:15:01;;;;;;;4.23;1.53;;;8.20;99.90;;;;;;5089719;28;20214;-83
2021/03/09 02:17:37;;;;;;;5.53;1.93;;;8.10;99.90;;;;;;5093922;28;20198;-82
2021/03/09 02:20:51;;;;;;;3.70;1.87;;;8.00;99.90;;;;;;5109587;28;20277;-83
2021/03/09 02:23:53;;;;;;;5.80;1.73;;;8.00;99.90;;;;;;5099218;28;20217;-82
2021/03/09 02:26:38;;;;;;;6.40;1.37;;;7.90;99.90;;;;;;5080899;28;20195;-82
2021/03/09 02:29:23;;;;;;;6.73;1.87;;;7.90;99.90;;;;;;5088745;28;20261;-81
2021/03/09 02:31:56;;;;;;;4.07;1.40;;;7.90;99.90;;;;;;5090699;28;20814;-82
2021/03/09 02:34:31;;;;;;;3.93;1.53;;;7.80;99.90;;;;;;5093764;28;20241;-83
2021/03/09 02:37:07;;;;;;;4.90;2.00;;;7.70;99.90;;;;;;5090185;28;20203;-82
2021/03/09 02:39:39;;;;;;;7.00;1.90;;;7.60;99.90;;;;;;5085951;28;20689;-82
2021/03/09 02:42:11;;;;;;;4.83;2.43;;;7.50;99.90;;;;;;5083714;28;20226;-82
2021/03/09 02:44:44;;;;;;;6.27;1.93;;;7.40;99.90;;;;;;5090127;28;20260;-82
2021/03/09 02:47:16;;;;;;;5.87;2.10;;;7.30;99.90;;;;;;5091317;28;20581;-82
2021/03/09 02:49:47;;;;;;;5.43;1.60;;;7.30;99.90;;;;;;5090732;28;20647;-82
2021/03/09 02:52:21;;;;;;;4.13;2.30;;;7.20;99.90;;;;;;5089713;28;20352;-83
2021/03/09 02:54:53;;;;;;;7.60;2.30;;;7.20;99.90;;;;;;5092806;28;20206;-82
2021/03/09 02:57:25;;;;;;;8.13;2.10;;;7.20;99.90;;;;;;5089904;28;20223;-82
2021/03/09 02:59:58;;;;;;;4.53;2.13;;;7.20;99.90;;;;;;5089684;28;20884;-83
2021/03/09 03:02:31;;;;;;;5.13;2.50;;;7.10;99.90;;;;;;5077030;28;20312;-81
2021/03/09 03:05:02;;;;;;;10.00;2.83;;;7.10;99.90;;;;;;5068143;28;20733;-80
2021/03/09 03:07:36;;;;;;;7.13;2.50;;;7.10;99.90;;;;;;5068557;28;20214;-81
2021/03/09 03:10:12;;;;;;;8.43;2.90;;;7.00;99.90;;;;;;5089628;28;20732;-81
2021/03/09 03:12:43;;;;;;;7.90;3.13;;;7.00;99.90;;;;;;5069207;28;20319;-81
2021/03/09 03:15:20;;;;;;;9.00;3.60;;;6.90;99.90;;;;;;5077559;28;20206;-82
2021/03/09 03:17:53;;;;;;;4.80;2.73;;;6.80;99.90;;;;;;5087626;28;20260;-80
2021/03/09 03:20:25;;;;;;;5.97;2.73;;;6.80;99.90;;;;;;5090580;28;20203;-80
2021/03/09 03:22:57;;;;;;;4.77;2.40;;;6.70;99.90;;;;;;5086356;28;20214;-81
2021/03/09 03:25:28;;;;;;;3.83;2.33;;;6.70;99.90;;;;;;5060689;28;20347;-82
2021/03/09 03:28:00;;;;;;;6.97;2.77;;;6.60;99.90;;;;;;5065676;28;20207;-81
2021/03/09 03:30:32;;;;;;;8.27;3.70;;;6.60;99.90;;;;;;5081181;28;20249;-82
2021/03/09 03:33:06;;;;;;;17.97;7.60;;;6.50;99.90;;;;;;5086315;28;20259;-82
2021/03/09 03:35:36;;;;;;;7.77;4.07;;;6.50;99.90;;;;;;5090625;28;20847;-82
2021/03/09 03:38:10;;;;;;;22.50;7.00;;;6.40;99.90;;;;;;5088473;28;20198;-83
2021/03/09 03:40:40;;;;;;;6.63;3.07;;;6.40;99.90;;;;;;5088446;28;20293;-82
2021/03/09 03:43:10;;;;;;;5.60;2.57;;;6.30;99.90;;;;;;5079436;28;20259;-81
2021/03/09 03:45:40;;;;;;;8.10;2.90;;;6.30;99.90;;;;;;5083911;28;20209;-84
2021/03/09 03:48:14;;;;;;;8.27;2.80;;;6.20;99.90;;;;;;5106902;28;20233;-84
2021/03/09 03:50:46;;;;;;;7.00;3.20;;;6.10;99.90;;;;;;5104823;28;20202;-82
2021/03/09 03:53:23;;;;;;;9.33;3.13;;;6.00;99.90;;;;;;5098115;28;20195;-82
2021/03/09 03:56:12;;;;;;;10.33;5.47;;;6.00;99.90;;;;;;5089538;28;20210;-81
2021/03/09 03:58:48;;;;;;;6.00;2.70;;;6.00;99.90;;;;;;5076712;28;20227;-81
2021/03/09 04:01:24;;;;;;;12.53;3.13;;;5.90;99.90;;;;;;5075425;28;20309;-81
2021/03/09 04:03:57;;;;;;;6.43;3.43;;;5.80;99.90;;;;;;5089540;28;20306;-82
2021/03/09 04:06:29;;;;;;;11.17;3.20;;;5.80;99.90;;;;;;5077449;28;20790;-80
2021/03/09 04:09:01;;;;;;;5.23;3.23;;;5.70;99.90;;;;;;5082802;28;20203;-80
2021/03/09 04:11:32;;;;;;;4.47;2.83;;;5.70;99.90;;;;;;5081272;28;20211;-81
2021/03/09 04:14:02;;;;;;;7.40;2.77;;;5.70;99.90;;;;;;5089957;28;20293;-81
2021/03/09 04:16:34;;;;;;;5.60;2.23;;;5.70;99.90;;;;;;5091258;28;20286;-81
2021/03/09 04:19:06;;;;;;;6.63;2.40;;;5.70;99.90;;;;;;5074802;28;20200;-82
2021/03/09 04:21:37;;;;;;;4.60;2.60;;;5.70;99.90;;;;;;5084859;28;20227;-80
2021/03/09 04:24:11;;;;;;;6.80;2.30;;;5.60;99.90;;;;;;5089068;28;20207;-82
2021/03/09 04:26:45;;;;;;;4.43;2.40;;;5.60;99.90;;;;;;5090941;28;20211;-81
2021/03/09 04:29:18;;;;;;;5.50;2.33;;;5.60;99.90;;;;;;5094156;28;20248;-82
2021/03/09 04:31:50;;;;;;;6.60;2.40;;;5.50;99.90;;;;;;5095047;28;20720;-82
2021/03/09 04:34:22;;;;;;;5.27;3.00;;;5.50;99.90;;;;;;5094076;28;20254;-82
2021/03/09 04:36:53;;;;;;;4.87;2.80;;;5.50;99.90;;;;;;5090405;28;20211;-81
2021/03/09 04:39:23;;;;;;;7.23;3.30;;;5.50;99.90;;;;;;5086345;28;20211;-82
2021/03/09 04:41:52;;;;;;;5.97;3.00;;;5.40;99.90;;;;;;5093526;28;20745;-82
2021/03/09 04:44:22;;;;;;;8.17;2.27;;;5.50;99.90;;;;;;5089079;28;20253;-82
2021/03/09 04:46:52;;;;;;;7.63;2.27;;;5.50;99.90;;;;;;5082041;28;20211;-81
2021/03/09 04:49:25;;;;;;;5.43;2.07;;;5.60;99.90;;;;;;5097771;28;20250;-81
2021/03/09 04:51:56;;;;;;;5.33;2.57;;;5.70;99.90;;;;;;5098140;28;20234;-82
2021/03/09 04:54:26;;;;;;;4.17;2.00;;;5.70;99.90;;;;;;5080573;28;20557;-82
2021/03/09 04:56:57;;;;;;;3.20;1.43;;;6.20;99.90;;;;;;5096394;28;20200;-81
2021/03/09 04:59:26;;;;;;;4.30;1.77;;;6.60;99.90;;;;;;5092073;28;20222;-83
2021/03/09 05:01:56;;;;;;;6.53;1.93;;;6.80;99.90;;;;;;5094070;28;20258;-82
2021/03/09 05:04:28;;;;;;;4.10;1.80;;;6.90;99.90;;;;;;5104807;28;20199;-81
2021/03/09 05:06:58;;;;;;;7.43;2.10;;;7.00;99.90;;;;;;5100066;28;20210;-81
2021/03/09 05:09:27;;;;;;;9.63;2.00;;;7.10;99.90;;;;;;5095522;28;20578;-82
2021/03/09 05:11:57;;;;;;;4.77;2.50;;;7.00;99.90;;;;;;5095098;28;20207;-82
2021/03/09 05:14:29;;;;;;;5.27;2.20;;;7.00;99.90;;;;;;5093211;28;20230;-81
2021/03/09 05:16:59;;;;;;;7.23;1.70;;;7.10;99.90;;;;;;5093920;28;20305;-81
2021/03/09 05:19:29;;;;;;;9.20;2.10;;;7.20;99.90;;;;;;5093332;28;20264;-82
2021/03/09 05:21:59;;;;;;;5.43;1.80;;;7.20;99.90;;;;;;5091759;28;20778;-81
2021/03/09 05:24:29;;;;;;;5.93;2.20;;;7.20;99.90;;;;;;5082340;28;20203;-82
2021/03/09 05:26:58;;;;;;;5.53;2.20;;;7.10;99.90;;;;;;5077489;28;20637;-82
2021/03/09 05:29:28;;;;;;;5.37;2.10;;;7.10;99.90;;;;;;5090996;28;21775;-84
2021/03/09 05:31:57;;;;;;;4.83;1.93;;;7.00;99.90;;;;;;5093413;28;20227;-81
2021/03/09 05:34:27;;;;;;;4.43;1.83;;;7.00;99.90;;;;;;5091630;28;20218;-81
2021/03/09 05:36:59;;;;;;;7.83;2.20;;;7.10;99.90;;;;;;5086914;28;20203;-81
2021/03/09 05:39:30;;;;;;;4.77;2.00;;;7.00;99.90;;;;;;5090784;28;20248;-81
2021/03/09 05:42:01;;;;;;;4.47;1.93;;;7.00;99.90;;;;;;5092001;28;20234;-82
2021/03/09 05:44:34;;;;;;;7.03;2.10;;;6.90;99.90;;;;;;5092549;28;20210;-82
2021/03/09 05:47:06;;;;;;;5.30;2.00;;;6.80;99.90;;;;;;5092475;28;20211;-82
2021/03/09 05:49:42;;;;;;;5.07;1.83;;;6.70;99.90;;;;;;5092931;28;20230;-82
2021/03/09 05:52:17;;;;;;;4.80;2.20;;;6.60;99.90;;;;;;5093559;28;20209;-82
2021/03/09 05:54:48;;;;;;;9.93;3.90;;;6.60;99.90;;;;;;5087039;28;20218;-82
2021/03/09 05:57:18;;;;;;;7.93;3.87;;;6.50;99.90;;;;;;5095596;28;20212;-82
2021/03/09 05:59:48;;;;;;;7.43;4.43;;;6.50;99.90;;;;;;5096062;28;20555;-81
2021/03/09 06:02:20;;;;;;;10.03;6.07;;;6.50;99.90;;;;;;5091494;28;20244;-82
2021/03/09 06:04:51;;;;;;;9.27;5.70;;;6.40;99.90;;;;;;5095096;28;20211;-81
2021/03/09 06:07:22;;;;;;;11.60;6.77;;;6.40;99.90;;;;;;5097031;28;20195;-81
2021/03/09 06:09:52;;;;;;;5.70;3.83;;;6.40;99.90;;;;;;5095996;28;20598;-81
2021/03/09 06:12:24;;;;;;;7.53;3.83;;;6.50;99.90;;;;;;5086076;28;20197;-80
2021/03/09 06:15:06;;;;;;;7.77;3.40;;;6.50;99.90;;;;;;5072171;28;20302;-80
2021/03/09 06:17:39;;;;;;;7.70;3.23;;;6.60;99.90;;;;;;5073351;28;20226;-81
2021/03/09 06:20:26;;;;;;;9.87;2.63;;;6.60;99.90;;;;;;5073469;28;20234;-80
2021/03/09 06:22:59;;;;;;;7.00;2.23;;;6.70;99.90;;;;;;5072935;28;20709;-81
2021/03/09 06:25:31;;;;;;;5.40;2.00;;;6.70;99.90;;;;;;5072648;28;20924;-82
2021/03/09 06:28:05;;;;;;;3.90;1.87;;;6.70;99.90;;;;;;5073028;28;20205;-81
2021/03/09 06:30:36;;;;;;;4.37;2.20;;;6.80;99.90;;;;;;5084195;28;20246;-81
2021/03/09 06:33:06;;;;;;;6.73;2.07;;;6.80;99.90;;;;;;5092871;28;20659;-81
2021/03/09 06:35:39;;;;;;;5.30;2.27;;;6.80;99.90;;;;;;5092156;28;20237;-81
2021/03/09 06:38:21;;;;;;;4.67;1.83;;;6.80;99.90;;;;;;5092239;28;20205;-81
2021/03/09 06:41:10;;;;;;;5.40;1.97;;;6.80;99.90;;;;;;5092470;28;20291;-82
2021/03/09 06:43:42;;;;;;;5.87;1.93;;;6.80;99.90;;;;;;5088964;28;20257;-81
2021/03/09 06:46:17;;;;;;;4.90;2.10;;;6.80;99.90;;;;;;5092880;28;20328;-82
2021/03/09 06:48:50;;;;;;;4.73;1.97;;;6.80;99.90;;;;;;5092151;28;20209;-82
2021/03/09 06:51:30;;;;;;;2.73;1.70;;;6.80;99.90;;;;;;5091890;28;20571;-81
2021/03/09 06:54:03;;;;;;;8.30;2.30;;;6.90;99.90;;;;;;5092316;28;20202;-82
2021/03/09 06:56:34;;;;;;;3.23;1.93;;;6.90;99.90;;;;;;5092539;28;20203;-81
2021/03/09 06:59:24;;;;;;;3.53;1.70;;;6.90;99.90;;;;;;5092917;28;20206;-81
2021/03/09 07:02:10;;;;;;;5.33;2.17;;;6.80;99.90;;;;;;5085655;28;20242;-82
2021/03/09 07:04:42;;;;;;;5.10;2.00;;;6.80;99.90;;;;;;5087568;28;20599;-82
2021/03/09 07:07:14;;;;;;;4.13;2.23;;;6.70;99.90;;;;;;5092621;28;20670;-81
2021/03/09 07:09:55;;;;;;;5.67;2.20;;;6.70;99.90;;;;;;5092939;28;20214;-82
2021/03/09 07:12:25;;;;;;;5.20;2.43;;;6.60;99.90;;;;;;5092958;28;20210;-81
2021/03/09 07:14:55;;;;;;;7.80;2.97;;;6.60;99.90;;;;;;5092399;28;20210;-81
2021/03/09 07:17:27;;;;;;;7.07;4.27;;;6.60;99.90;;;;;;5093236;28;20199;-81
2021/03/09 07:20:00;;;;;;;10.23;5.40;;;6.80;99.90;;;;;;5084651;28;20396;-81
2021/03/09 07:22:52;;;;;;;10.80;5.77;;;6.70;99.90;;;;;;5075808;28;20219;-84
2021/03/09 07:25:26;;;;;;;8.47;4.10;;;6.60;99.90;;;;;;5090096;28;20205;-83
2021/03/09 07:27:59;;;;;;;9.30;5.30;;;6.50;99.90;;;;;;5091255;28;20207;-83
2021/03/09 07:30:30;;;;;;;10.23;5.50;;;6.50;99.90;;;;;;5094077;28;20205;-81
2021/03/09 07:33:01;;;;;;;8.27;5.07;;;6.50;99.90;;;;;;5107376;28;20323;-82
2021/03/09 07:35:31;;;;;;;10.00;4.83;;;6.50;99.90;;;;;;5091200;28;20274;-82
2021/03/09 07:38:03;;;;;;;4.17;2.37;;;6.50;99.90;;;;;;5093249;28;20203;-81
2021/03/09 07:40:36;;;;;;;6.30;2.10;;;6.60;99.90;;;;;;5091947;28;20207;-81
2021/03/09 07:43:06;;;;;;;4.23;1.47;;;6.70;99.90;;;;;;5091058;28;20237;-81
2021/03/09 07:45:37;;;;;;;3.50;1.60;;;6.90;99.90;;;;;;5091318;28;20202;-81
2021/03/09 07:48:11;;;;;;;3.93;1.80;;;7.00;99.90;;;;;;5090262;28;20199;-81
2021/03/09 07:50:41;;;;;;;4.07;2.03;;;7.10;99.90;;;;;;5087223;28;20203;-81
2021/03/09 07:53:10;;;;;;;4.57;2.00;;;7.20;99.90;;;;;;5090807;28;20229;-80
2021/03/09 07:55:41;;;;;;;4.87;1.60;;;7.30;99.90;;;;;;5074578;28;20219;-80
2021/03/09 07:58:29;;;;;;;5.23;1.50;;;7.30;99.90;;;;;;5087442;28;20210;-81
2021/03/09 08:00:59;;;;;;;4.47;2.00;;;7.30;99.90;;;;;;5085531;28;20212;-81
2021/03/09 08:03:30;;;;;;;7.20;2.30;;;7.40;99.90;;;;;;5093101;28;20719;-81
2021/03/09 08:06:00;;;;;;;5.27;1.90;;;7.40;99.90;;;;;;5096195;28;20198;-81
2021/03/09 08:08:45;;;;;;;4.17;1.90;;;7.30;99.90;;;;;;5096253;28;20203;-81
2021/03/09 08:11:42;;;;;;;4.53;2.03;;;7.30;99.90;;;;;;5096569;28;20203;-82
2021/03/09 08:14:26;;;;;;;6.10;2.23;;;7.30;99.90;;;;;;5094562;28;20210;-81
2021/03/09 08:16:56;;;;;;;3.87;2.00;;;7.30;99.90;;;;;;5096396;28;20283;-82
2021/03/09 08:19:45;;;;;;;7.63;2.30;;;7.20;99.90;;;;;;5098147;28;20229;-82
2021/03/09 08:22:15;;;;;;;3.13;1.93;;;7.20;99.90;;;;;;5099682;28;20222;-82
2021/03/09 08:25:02;;;;;;;4.60;2.30;;;7.10;99.90;;;;;;5099386;28;20200;-81
2021/03/09 08:27:40;;;;;;;4.73;2.30;;;7.00;99.90;;;;;;5100968;28;20257;-81
2021/03/09 08:30:30;;;;;;;6.63;2.47;;;6.90;99.90;;;;;;5097864;28;20194;-81
2021/03/09 08:33:33;;;;;;;5.57;2.33;;;6.80;99.90;;;;;;5096372;28;20252;-81
2021/03/09 08:36:18;;;;;;;6.17;2.67;;;6.80;99.90;;;;;;5070377;28;20214;-82
2021/03/09 08:39:13;;;;;;;5.43;2.37;;;6.70;99.90;;;;;;5060505;28;20211;-82
2021/03/09 08:41:59;;;;;;;6.10;2.00;;;6.60;99.90;;;;;;5087346;28;20597;-81
2021/03/09 08:44:29;;;;;;;4.80;2.00;;;6.40;99.90;;;;;;5092082;28;20789;-82
2021/03/09 08:47:03;;;;;;;7.33;3.07;;;6.30;99.90;;;;;;5095347;28;20294;-81
2021/03/09 08:49:56;;;;;;;6.23;2.37;;;6.20;99.90;;;;;;5095412;28;20232;-82
2021/03/09 08:52:43;;;;;;;3.63;2.10;;;6.00;99.90;;;;;;5072371;28;20283;-79
2021/03/09 08:55:12;;;;;;;5.97;2.40;;;5.90;99.90;;;;;;5093240;28;20276;-80
2021/03/09 08:57:42;;;;;;;5.67;2.13;;;5.80;99.90;;;;;;5095421;28;20261;-81
2021/03/09 09:00:14;;;;;;;4.10;2.10;;;5.70;99.90;;;;;;5097918;28;20691;-80
2021/03/09 09:02:44;;;;;;;4.53;2.07;;;5.70;99.90;;;;;;5092688;28;20236;-80
2021/03/09 09:05:15;;;;;;;5.67;2.10;;;5.60;99.90;;;;;;5074305;28;20253;-81
2021/03/09 09:07:46;;;;;;;5.57;1.87;;;5.60;99.90;;;;;;5075382;28;20239;-81
2021/03/09 09:10:19;;;;;;;4.43;2.00;;;5.60;99.90;;;;;;5090641;28;20232;-80
2021/03/09 09:12:52;;;;;;;4.13;1.90;;;5.70;99.90;;;;;;5076830;28;20290;-81
2021/03/09 09:15:25;;;;;;;4.37;2.03;;;5.70;99.90;;;;;;5092508;28;20203;-82
2021/03/09 09:17:57;;;;;;;5.03;1.80;;;5.80;99.90;;;;;;5096083;28;20211;-81
2021/03/09 09:20:32;;;;;;;4.77;1.80;;;5.80;99.90;;;;;;5095018;28;20195;-81
2021/03/09 09:23:10;;;;;;;8.17;2.27;;;5.80;99.90;;;;;;5095441;28;20321;-80
2021/03/09 09:25:41;;;;;;;3.93;2.13;;;5.80;99.90;;;;;;5074471;28;20203;-81
2021/03/09 09:28:21;;;;;;;3.27;2.20;;;5.80;99.90;;;;;;5092393;28;20254;-81
2021/03/09 09:30:53;;;;;;;4.50;1.87;;;5.90;99.90;;;;;;5094238;28;20203;-83
2021/03/09 09:33:34;;;;;;;4.97;2.30;;;5.90;99.90;;;;;;5093564;28;20209;-82
2021/03/09 09:36:05;;;;;;;5.70;2.33;;;5.90;99.90;;;;;;5092778;28;20210;-81
2021/03/09 09:38:35;;;;;;;4.40;2.27;;;5.90;99.90;;;;;;5081396;28;20871;-82
2021/03/09 09:41:05;;;;;;;7.43;2.53;;;5.90;99.90;;;;;;5077055;28;20268;-82
2021/03/09 09:43:36;;;;;;;3.90;2.30;;;5.80;99.90;;;;;;5082228;28;20227;-82
2021/03/09 09:46:09;;;;;;;5.30;2.20;;;5.80;99.90;;;;;;5095249;28;20211;-81
2021/03/09 09:48:41;;;;;;;2.83;2.27;;;5.60;99.90;;;;;;5095798;28;20211;-82
2021/03/09 09:51:16;;;;;;;8.07;2.50;;;5.60;99.90;;;;;;5086240;28;20252;-84
2021/03/09 09:53:47;;;;;;;5.63;2.13;;;5.50;99.90;;;;;;5105924;28;20231;-81
2021/03/09 09:56:25;;;;;;;5.60;2.47;;;5.50;99.90;;;;;;5115398;28;20640;-82
2021/03/09 09:58:56;;;;;;;4.03;1.97;;;5.30;99.90;;;;;;5106036;28;20188;-82
2021/03/09 10:01:45;;;;;;;8.27;2.93;;;5.20;99.90;;;;;;5098394;28;20194;-82
2021/03/09 10:04:16;;;;;;;4.87;2.40;;;5.10;99.90;;;;;;5102853;28;20202;-81
2021/03/09 10:06:48;;;;;;;5.23;2.33;;;5.00;99.90;;;;;;5097495;28;20199;-82
2021/03/09 10:09:20;;;;;;;4.13;2.27;;;5.00;99.90;;;;;;5091736;28;20240;-81
2021/03/09 10:11:53;;;;;;;4.07;2.13;;;4.90;99.90;;;;;;5076769;28;20244;-81
2021/03/09 10:14:24;;;;;;;3.47;2.40;;;4.80;99.90;;;;;;5092404;28;20207;-81
2021/03/09 10:16:57;;;;;;;5.37;2.63;;;4.70;99.90;;;;;;5079456;28;20211;-81
2021/03/09 10:19:38;;;;;;;5.70;2.57;;;4.60;99.90;;;;;;5075714;28;20200;-82
2021/03/09 10:22:19;;;;;;;3.60;2.17;;;4.50;99.90;;;;;;5092570;28;20222;-82
2021/03/09 10:24:50;;;;;;;4.77;2.47;;;4.50;99.90;;;;;;5085679;28;20667;-82
2021/03/09 10:27:24;;;;;;;3.87;2.37;;;4.40;99.90;;;;;;5073768;28;20257;-81
2021/03/09 10:29:57;;;;;;;4.40;2.53;;;4.40;99.90;;;;;;5091529;28;20273;-82
2021/03/09 10:32:30;;;;;;;3.60;2.00;;;4.30;99.90;;;;;;5093371;28;20195;-82
2021/03/09 10:35:08;;;;;;;4.33;2.50;;;4.20;99.90;;;;;;5091490;28;20207;-82
2021/03/09 10:37:41;;;;;;;6.20;2.30;;;4.10;99.90;;;;;;5065243;28;20244;-82
2021/03/09 10:40:16;;;;;;;3.73;2.27;;;4.10;99.90;;;;;;5089945;28;20284;-82
2021/03/09 10:42:50;;;;;;;5.67;2.30;;;4.00;99.90;;;;;;5074155;28;20635;-82
2021/03/09 10:45:24;;;;;;;4.90;2.13;;;4.00;99.90;;;;;;5074465;28;20204;-82
2021/03/09 10:47:57;;;;;;;3.23;2.13;;;3.90;99.90;;;;;;5094310;28;20207;-81
2021/03/09 10:50:28;;;;;;;4.23;1.93;;;3.90;99.90;;;;;;5094509;28;20222;-81
2021/03/09 10:52:58;;;;;;;4.43;2.27;;;3.80;99.90;;;;;;5092233;28;20210;-81
2021/03/09 10:55:28;;;;;;;5.37;2.20;;;3.70;99.90;;;;;;5091817;28;20236;-82
2021/03/09 10:57:58;;;;;;;4.00;2.00;;;3.60;99.90;;;;;;5076543;28;20203;-81
2021/03/09 11:00:29;;;;;;;5.40;2.03;;;3.60;99.90;;;;;;5071873;28;20554;-81
2021/03/09 11:03:01;;;;;;;3.73;1.73;;;3.50;99.90;;;;;;5089943;28;20227;-82
2021/03/09 11:05:32;;;;;;;2.77;1.50;;;3.50;99.90;;;;;;5088716;28;20226;-82
2021/03/09 11:08:03;;;;;;;5.80;2.40;;;3.50;99.90;;;;;;5092360;28;20195;-81
2021/03/09 11:10:33;;;;;;;5.30;1.83;;;3.40;99.90;;;;;;5086782;28;20203;-82
2021/03/09 11:13:03;;;;;;;4.27;1.80;;;3.30;99.90;;;;;;5072392;28;20208;-81
2021/03/09 11:15:33;;;;;;;4.50;2.07;;;3.30;99.90;;;;;;5076362;28;20217;-81
2021/03/09 11:18:04;;;;;;;4.43;2.37;;;3.30;99.90;;;;;;5088592;28;20207;-82
2021/03/09 11:20:35;;;;;;;5.30;2.07;;;3.20;99.90;;;;;;5092282;28;20190;-82
2021/03/09 11:23:06;;;;;;;4.10;1.73;;;3.20;99.90;;;;;;5092386;28;20237;-82
2021/03/09 11:25:37;;;;;;;2.93;1.90;;;3.10;99.90;;;;;;5085811;28;20725;-83
2021/03/09 11:28:07;;;;;;;4.57;2.10;;;3.20;99.90;;;;;;5072676;28;20626;-82
2021/03/09 11:30:38;;;;;;;3.83;2.40;;;3.20;99.90;;;;;;5077948;28;20199;-80
2021/03/09 11:33:10;;;;;;;3.83;2.17;;;3.20;99.90;;;;;;5092554;28;20218;-82
2021/03/09 11:35:41;;;;;;;4.77;3.03;;;3.20;99.90;;;;;;5091642;28;20215;-83
2021/03/09 11:38:12;;;;;;;8.37;2.87;;;3.20;99.90;;;;;;5087440;28;20243;-84
2021/03/09 11:40:43;;;;;;;6.47;2.90;;;3.20;99.90;;;;;;5085463;28;20575;-82
2021/03/09 11:43:14;;;;;;;5.20;3.00;;;3.20;99.90;;;;;;5088857;28;20780;-86
2021/03/09 11:45:45;;;;;;;4.17;2.10;;;3.20;99.90;;;;;;5085557;28;20215;-82
2021/03/09 11:48:18;;;;;;;3.67;1.70;;;3.10;99.90;;;;;;5091221;28;20206;-82
2021/03/09 11:50:49;;;;;;;7.37;2.23;;;3.10;99.90;;;;;;5090705;28;20280;-81
2021/03/09 11:53:20;;;;;;;2.20;1.60;;;3.10;99.90;;;;;;5089163;28;20661;-81
2021/03/09 11:55:51;;;;;;;5.27;2.40;;;3.20;99.90;;;;;;5083158;28;20261;-81
2021/03/09 11:58:22;;;;;;;4.33;2.07;;;3.20;99.90;;;;;;5088634;28;20206;-83
2021/03/09 12:00:53;;;;;;;3.57;2.00;;;3.30;99.90;;;;;;5082762;28;20222;-81
2021/03/09 12:03:25;;;;;;;3.33;2.27;;;3.40;99.90;;;;;;5071579;28;20262;-81
2021/03/09 12:05:56;;;;;;;5.97;2.30;;;3.50;99.90;;;;;;5081960;28;20712;-81
2021/03/09 12:08:26;;;;;;;5.90;2.67;;;3.60;99.90;;;;;;5083362;28;20223;-82
2021/03/09 12:10:56;;;;;;;4.30;2.50;;;3.60;99.90;;;;;;5073468;28;20290;-81
2021/03/09 12:13:26;;;;;;;4.30;2.20;;;3.50;99.90;;;;;;5073409;28;20294;-82
2021/03/09 12:15:55;;;;;;;3.27;1.90;;;3.50;99.90;;;;;;5093615;28;20219;-81
2021/03/09 12:18:26;;;;;;;5.67;2.50;;;3.50;99.90;;;;;;5089593;28;20203;-83
2021/03/09 12:20:56;;;;;;;4.23;2.33;;;3.50;99.90;;;;;;5078163;28;20261;-82
2021/03/09 12:23:26;;;;;;;5.47;2.10;;;3.40;99.90;;;;;;5107347;28;20210;-84
2021/03/09 12:26:09;;;;;;;4.00;2.10;;;3.40;99.90;;;;;;5093573;28;20195;-83
2021/03/09 12:28:39;;;;;;;4.40;1.90;;;3.40;99.90;;;;;;5091378;28;20717;-82
2021/03/09 12:31:10;;;;;;;3.17;1.77;;;3.40;99.90;;;;;;5092493;28;20243;-82
2021/03/09 12:33:42;;;;;;;5.20;2.27;;;3.40;99.90;;;;;;5090205;28;20199;-82
2021/03/09 12:36:14;;;;;;;4.07;2.17;;;3.50;99.90;;;;;;5091561;28;20203;-82
2021/03/09 12:38:44;;;;;;;3.67;2.27;;;3.50;99.90;;;;;;5091174;28;20203;-83
2021/03/09 12:41:14;;;;;;;10.47;2.70;;;3.50;99.90;;;;;;5083336;28;20233;-83
2021/03/09 12:43:44;;;;;;;5.70;2.03;;;3.60;99.90;;;;;;5090847;28;20508;-82
2021/03/09 12:46:13;;;;;;;4.03;2.03;;;3.60;99.90;;;;;;5077190;28;20207;-83
2021/03/09 12:48:45;;;;;;;8.07;2.40;;;3.70;99.90;;;;;;5091689;28;20206;-81
2021/03/09 12:51:16;;;;;;;4.97;2.30;;;3.70;99.90;;;;;;5091633;28;20213;-82
2021/03/09 12:53:47;;;;;;;6.37;2.47;;;3.60;99.90;;;;;;5081319;28;20200;-81
2021/03/09 12:56:30;;;;;;;3.27;2.10;;;3.60;99.90;;;;;;5093755;28;20220;-82
2021/03/09 12:59:00;;;;;;;3.63;2.20;;;3.60;99.90;;;;;;5094226;28;20203;-83
2021/03/09 13:01:31;;;;;;;4.27;2.13;;;3.60;99.90;;;;;;5092711;28;20196;-83
2021/03/09 13:04:04;;;;;;;3.67;1.90;;;3.40;99.90;;;;;;5081580;28;20289;-82
2021/03/09 13:06:34;;;;;;;5.27;2.23;;;3.30;99.90;;;;;;5093207;28;20207;-81
2021/03/09 13:09:06;;;;;;;3.20;2.03;;;3.20;99.90;;;;;;5090325;28;20280;-81
2021/03/09 13:11:37;;;;;;;4.07;2.13;;;3.20;99.90;;;;;;5098590;28;20655;-82
2021/03/09 13:14:07;;;;;;;4.73;2.10;;;3.10;99.90;;;;;;5095690;28;20206;-82
2021/03/09 13:16:37;;;;;;;4.90;2.13;;;3.10;99.90;;;;;;5085060;28;20615;-82
2021/03/09 13:19:08;;;;;;;5.40;2.17;;;3.00;99.90;;;;;;5095212;28;20294;-80
2021/03/09 13:21:38;;;;;;;5.27;2.27;;;3.00;99.90;;;;;;5087355;28;20211;-81
2021/03/09 13:24:08;;;;;;;4.47;2.40;;;2.90;99.90;;;;;;5073277;28;20345;-80
2021/03/09 13:26:52;;;;;;;6.33;2.33;;;2.80;99.90;;;;;;5088897;28;20626;-81
2021/03/09 13:29:22;;;;;;;5.27;2.50;;;2.80;99.90;;;;;;5094166;28;20234;-81
2021/03/09 13:31:52;;;;;;;6.57;2.33;;;2.70;99.90;;;;;;5092955;28;20227;-80